createdAt,value
2023-01-17T00:00:30.624Z,4.57
2023-01-17T00:02:57.379Z,5.17
2023-01-17T00:05:42.511Z,8.33
2023-01-17T00:08:31.308Z,7.40
2023-01-17T00:10:58.305Z,5.00
2023-01-17T00:13:24.704Z,4.17
2023-01-17T00:15:51.175Z,4.77
2023-01-17T00:18:17.699Z,4.10
2023-01-17T00:21:02.917Z,5.57
2023-01-17T00:23:48.219Z,5.83
2023-01-17T00:26:18.761Z,6.43
2023-01-17T00:28:46.741Z,9.03
2023-01-17T00:31:13.995Z,11.17
2023-01-17T00:33:40.521Z,9.90
2023-01-17T00:36:07.306Z,10.67
2023-01-17T00:38:35.283Z,10.73
2023-01-17T00:41:06.120Z,13.40
2023-01-17T00:43:51.312Z,9.37
2023-01-17T00:46:36.903Z,12.57
2023-01-17T00:49:22.127Z,9.60
2023-01-17T00:52:06.903Z,10.57
2023-01-17T00:54:52.116Z,18.20
2023-01-17T00:57:37.156Z,11.17
2023-01-17T01:00:22.815Z,10.67
2023-01-17T01:03:08.115Z,9.33
2023-01-17T01:05:53.237Z,12.17
2023-01-17T01:08:42.735Z,6.87
2023-01-17T01:11:28.987Z,7.60
2023-01-17T01:14:14.344Z,8.77
2023-01-17T01:16:59.627Z,8.50
2023-01-17T01:19:44.892Z,7.60
2023-01-17T01:22:30.105Z,8.90
2023-01-17T01:25:15.402Z,7.57
2023-01-17T01:28:00.483Z,8.90
2023-01-17T01:30:45.451Z,9.73
2023-01-17T01:33:18.913Z,9.67
2023-01-17T01:35:48.276Z,9.80
2023-01-17T01:38:14.921Z,9.33
2023-01-17T01:40:42.215Z,8.63
2023-01-17T01:43:09.106Z,9.73
2023-01-17T01:45:35.812Z,14.37
2023-01-17T01:48:03.926Z,12.43
2023-01-17T01:50:31.282Z,8.97
2023-01-17T01:52:59.989Z,9.97
2023-01-17T01:55:32.047Z,13.90
2023-01-17T01:58:02.252Z,11.00
2023-01-17T02:00:30.518Z,11.17
2023-01-17T02:02:59.339Z,9.47
2023-01-17T02:05:27.184Z,10.47
2023-01-17T02:08:01.538Z,10.63
2023-01-17T02:10:28.402Z,10.67
2023-01-17T02:12:55.816Z,9.77
2023-01-17T02:15:29.273Z,6.93
2023-01-17T02:18:09.553Z,11.47
2023-01-17T02:20:48.243Z,5.50
2023-01-17T02:23:17.793Z,7.33
2023-01-17T02:26:13.600Z,7.30
2023-01-17T02:28:58.349Z,8.23
2023-01-17T02:31:27.605Z,8.77
2023-01-17T02:34:06.427Z,8.90
2023-01-17T02:36:35.629Z,11.00
2023-01-17T02:39:09.657Z,5.73
2023-01-17T02:41:40.774Z,6.37
2023-01-17T02:44:15.237Z,8.57
2023-01-17T02:46:55.518Z,7.70
2023-01-17T02:49:24.263Z,7.17
2023-01-17T02:51:56.875Z,10.20
2023-01-17T02:54:27.544Z,6.93
2023-01-17T02:56:53.961Z,6.93
2023-01-17T02:59:33.364Z,8.53
2023-01-17T03:02:09.141Z,12.50
2023-01-17T03:04:44.391Z,8.17
2023-01-17T03:07:17.470Z,11.83
2023-01-17T03:09:45.858Z,10.00
2023-01-17T03:12:12.740Z,7.80
2023-01-17T03:14:39.186Z,7.63
2023-01-17T03:17:05.651Z,7.00
2023-01-17T03:19:32.122Z,6.93
2023-01-17T03:21:58.526Z,5.63
2023-01-17T03:24:24.939Z,7.57
2023-01-17T03:26:51.351Z,6.13
2023-01-17T03:29:17.774Z,8.50
2023-01-17T03:31:44.172Z,6.33
2023-01-17T03:34:10.977Z,5.93
2023-01-17T03:36:37.554Z,5.80
2023-01-17T03:39:04.081Z,6.70
2023-01-17T03:41:30.530Z,7.47
2023-01-17T03:43:57.028Z,6.10
2023-01-17T03:46:24.487Z,7.90
2023-01-17T03:48:50.973Z,9.10
2023-01-17T03:51:17.878Z,8.37
2023-01-17T03:53:46.846Z,8.50
2023-01-17T03:56:13.679Z,6.60
2023-01-17T03:58:41.384Z,8.50
2023-01-17T04:01:08.039Z,5.27
2023-01-17T04:03:34.466Z,7.50
2023-01-17T04:06:00.939Z,7.00
2023-01-17T04:08:27.322Z,6.03
2023-01-17T04:10:53.820Z,8.80
2023-01-17T04:13:20.312Z,12.67
2023-01-17T04:15:48.415Z,11.03
2023-01-17T04:18:16.331Z,10.40
2023-01-17T04:20:42.772Z,14.47
2023-01-17T04:23:09.194Z,14.93
2023-01-17T04:25:35.601Z,14.33
2023-01-17T04:28:03.500Z,16.87
2023-01-17T04:30:30.432Z,16.17
2023-01-17T04:32:56.969Z,17.70
2023-01-17T04:35:23.798Z,18.83
2023-01-17T04:37:50.714Z,14.50
2023-01-17T04:40:17.215Z,15.70
2023-01-17T04:42:47.271Z,14.37
2023-01-17T04:45:14.371Z,17.60
2023-01-17T04:47:40.785Z,14.53
2023-01-17T04:50:07.756Z,17.63
2023-01-17T04:52:34.173Z,22.00
2023-01-17T04:55:00.652Z,18.00
2023-01-17T04:57:27.161Z,22.33
2023-01-17T04:59:53.595Z,21.73
2023-01-17T05:02:20.339Z,22.63
2023-01-17T05:04:46.907Z,34.33
2023-01-17T05:07:13.338Z,36.27
2023-01-17T05:09:39.781Z,23.03
2023-01-17T05:12:06.331Z,26.00
2023-01-17T05:14:34.275Z,31.40
2023-01-17T05:17:02.950Z,26.83
2023-01-17T05:19:29.380Z,28.00
2023-01-17T05:21:55.930Z,28.97
2023-01-17T05:24:22.344Z,32.67
2023-01-17T05:26:54.613Z,37.03
2023-01-17T05:29:21.634Z,28.67
2023-01-17T05:31:48.294Z,77.40
2023-01-17T05:34:14.695Z,29.67
2023-01-17T05:36:41.297Z,38.23
2023-01-17T05:39:07.785Z,36.80
2023-01-17T05:41:34.293Z,33.50
2023-01-17T05:44:00.820Z,34.63
2023-01-17T05:46:27.278Z,33.77
2023-01-17T05:48:53.860Z,41.70
2023-01-17T05:51:20.292Z,31.80
2023-01-17T05:53:46.703Z,29.17
2023-01-17T05:56:13.216Z,24.10
2023-01-17T05:58:40.048Z,29.20
2023-01-17T06:01:06.827Z,32.30
2023-01-17T06:03:33.259Z,25.70
2023-01-17T06:05:59.695Z,41.57
2023-01-17T06:08:26.209Z,29.37
2023-01-17T06:10:52.748Z,26.83
2023-01-17T06:13:21.976Z,27.10
2023-01-17T06:15:48.849Z,23.87
2023-01-17T06:18:16.505Z,19.97
2023-01-17T06:20:42.953Z,24.63
2023-01-17T06:23:13.720Z,32.13
2023-01-17T06:25:41.228Z,36.17
2023-01-17T06:28:07.787Z,27.23
2023-01-17T06:30:34.237Z,28.63
2023-01-17T06:33:00.763Z,22.93
2023-01-17T06:35:27.382Z,27.60
2023-01-17T06:37:55.348Z,24.60
2023-01-17T06:40:22.118Z,21.07
2023-01-17T06:42:48.840Z,22.20
2023-01-17T06:45:15.353Z,39.37
2023-01-17T06:47:42.174Z,41.27
2023-01-17T06:50:10.515Z,43.50
2023-01-17T06:52:37.021Z,35.17
2023-01-17T06:55:03.965Z,25.73
2023-01-17T06:57:30.371Z,24.97
2023-01-17T06:59:56.747Z,31.03
2023-01-17T07:02:23.372Z,28.60
2023-01-17T07:04:49.837Z,27.90
2023-01-17T07:07:16.751Z,31.93
2023-01-17T07:09:44.043Z,24.43
2023-01-17T07:12:12.535Z,35.37
2023-01-17T07:14:40.727Z,33.80
2023-01-17T07:17:07.155Z,34.93
2023-01-17T07:19:33.625Z,35.50
2023-01-17T07:22:00.114Z,49.93
2023-01-17T07:24:26.552Z,32.33
2023-01-17T07:26:53.074Z,26.87
2023-01-17T07:29:19.589Z,27.73
2023-01-17T07:31:48.167Z,33.33
2023-01-17T07:34:14.717Z,36.27
2023-01-17T07:36:41.113Z,40.80
2023-01-17T07:39:09.156Z,46.77
2023-01-17T07:41:41.179Z,43.90
2023-01-17T07:44:10.357Z,38.13
2023-01-17T07:46:36.847Z,52.63
2023-01-17T07:49:03.297Z,34.80
2023-01-17T07:51:29.964Z,32.90
2023-01-17T07:53:56.432Z,33.20
2023-01-17T07:56:22.952Z,69.67
2023-01-17T07:58:49.397Z,38.73
2023-01-17T08:01:16.104Z,32.73
2023-01-17T08:03:42.815Z,38.80
2023-01-17T08:06:23.906Z,31.13
2023-01-17T08:08:50.560Z,77.67
2023-01-17T08:11:17.164Z,59.87
2023-01-17T08:13:43.669Z,58.27
2023-01-17T08:16:13.470Z,43.67
2023-01-17T08:18:40.201Z,46.17
2023-01-17T08:21:14.186Z,36.37
2023-01-17T08:23:40.710Z,47.57
2023-01-17T08:26:07.173Z,63.87
2023-01-17T08:28:34.469Z,32.47
2023-01-17T08:31:10.308Z,48.30
2023-01-17T08:33:36.766Z,45.47
2023-01-17T08:36:03.258Z,112.53
2023-01-17T08:38:29.671Z,46.60
2023-01-17T08:40:56.182Z,40.17
2023-01-17T08:43:22.681Z,33.80
2023-01-17T08:45:50.195Z,50.83
2023-01-17T08:48:16.704Z,37.70
2023-01-17T08:50:43.158Z,36.37
2023-01-17T08:53:09.644Z,49.00
2023-01-17T08:55:39.487Z,53.23
2023-01-17T08:58:05.905Z,35.70
2023-01-17T09:00:32.614Z,34.53
2023-01-17T09:02:59.403Z,42.57
2023-01-17T09:05:25.827Z,43.07
2023-01-17T09:07:52.264Z,32.23
2023-01-17T09:10:18.856Z,42.90
2023-01-17T09:12:45.374Z,54.57
2023-01-17T09:15:14.611Z,27.67
2023-01-17T09:17:41.130Z,31.90
2023-01-17T09:20:08.098Z,45.47
2023-01-17T09:22:35.935Z,30.17
2023-01-17T09:25:02.423Z,39.50
2023-01-17T09:27:28.851Z,34.40
2023-01-17T09:29:55.439Z,41.70
2023-01-17T09:32:22.177Z,34.30
2023-01-17T09:34:48.593Z,36.43
2023-01-17T09:37:15.000Z,40.87
2023-01-17T09:39:41.466Z,29.23
2023-01-17T09:42:18.213Z,29.03
2023-01-17T09:44:51.589Z,29.73
2023-01-17T09:47:30.403Z,27.30
2023-01-17T09:49:59.517Z,28.37
2023-01-17T09:52:28.554Z,18.90
2023-01-17T09:54:55.013Z,28.00
2023-01-17T09:57:27.585Z,21.67
2023-01-17T10:00:03.191Z,22.53
2023-01-17T10:02:36.077Z,27.23
2023-01-17T10:05:02.608Z,24.40
2023-01-17T10:07:44.526Z,26.47
2023-01-17T10:10:20.204Z,31.77
2023-01-17T10:12:50.743Z,25.90
2023-01-17T10:15:20.501Z,31.40
2023-01-17T10:17:53.454Z,26.07
2023-01-17T10:20:43.051Z,18.93
2023-01-17T10:23:18.000Z,25.13
2023-01-17T10:25:52.416Z,27.07
2023-01-17T10:28:26.052Z,26.20
2023-01-17T10:30:54.525Z,21.13
2023-01-17T10:33:24.363Z,22.93
2023-01-17T10:35:56.879Z,17.70
2023-01-17T10:38:37.613Z,16.37
2023-01-17T10:41:33.554Z,15.33
2023-01-17T10:44:11.787Z,11.50
2023-01-17T10:46:41.341Z,12.53
2023-01-17T10:49:14.839Z,15.70
2023-01-17T10:51:59.989Z,16.37
2023-01-17T10:54:45.631Z,19.00
2023-01-17T10:57:14.832Z,16.87
2023-01-17T10:59:41.550Z,14.60
2023-01-17T11:02:23.796Z,15.47
2023-01-17T11:04:54.729Z,15.27
2023-01-17T11:07:28.675Z,15.17
2023-01-17T11:09:58.883Z,24.27
2023-01-17T11:12:28.000Z,15.93
2023-01-17T11:14:59.822Z,13.73
2023-01-17T11:17:27.543Z,13.80
2023-01-17T11:19:54.530Z,18.33
2023-01-17T11:22:21.091Z,21.20
2023-01-17T11:24:49.313Z,12.67
2023-01-17T11:27:26.471Z,13.30
2023-01-17T11:30:15.793Z,15.07
2023-01-17T11:32:55.577Z,18.80
2023-01-17T11:35:27.584Z,23.50
2023-01-17T11:37:58.417Z,19.13
2023-01-17T11:40:27.239Z,19.03
2023-01-17T11:43:01.659Z,22.27
2023-01-17T11:45:30.037Z,14.70
2023-01-17T11:48:12.753Z,15.27
2023-01-17T11:50:41.996Z,16.20
2023-01-17T11:53:34.541Z,21.00
2023-01-17T11:56:06.169Z,23.60
2023-01-17T11:58:33.935Z,19.07
2023-01-17T12:01:18.526Z,13.97
2023-01-17T12:03:50.992Z,12.57
2023-01-17T12:06:23.622Z,16.60
2023-01-17T12:09:03.585Z,16.67
2023-01-17T12:12:05.336Z,16.00
2023-01-17T12:14:41.005Z,11.67
2023-01-17T12:17:30.742Z,16.20
2023-01-17T12:20:01.492Z,14.37
2023-01-17T12:22:46.988Z,16.00
2023-01-17T12:25:19.552Z,16.50
2023-01-17T12:27:59.790Z,17.13
2023-01-17T12:30:35.522Z,11.87
2023-01-17T12:33:20.700Z,14.80
2023-01-17T12:35:52.906Z,12.73
2023-01-17T12:38:39.353Z,10.33
2023-01-17T12:41:26.510Z,21.17
2023-01-17T12:44:00.169Z,11.90
2023-01-17T12:46:43.160Z,12.60
2023-01-17T12:49:15.801Z,15.00
2023-01-17T12:51:44.358Z,9.97
2023-01-17T12:54:46.203Z,10.67
2023-01-17T12:57:17.588Z,15.13
2023-01-17T12:59:47.966Z,11.53
2023-01-17T13:02:25.003Z,11.93
2023-01-17T13:05:03.155Z,7.77
2023-01-17T13:07:38.980Z,6.50
2023-01-17T13:10:05.509Z,5.93
2023-01-17T13:12:33.170Z,10.03
2023-01-17T13:15:02.059Z,7.80
2023-01-17T13:17:28.573Z,8.87
2023-01-17T13:20:23.016Z,11.20
2023-01-17T13:22:51.107Z,9.67
2023-01-17T13:25:34.366Z,10.40
2023-01-17T13:28:04.072Z,9.13
2023-01-17T13:30:43.927Z,8.80
2023-01-17T13:33:16.424Z,9.10
2023-01-17T13:35:43.568Z,6.90
2023-01-17T13:38:28.588Z,10.77
2023-01-17T13:41:24.460Z,7.30
2023-01-17T13:44:09.377Z,10.57
2023-01-17T13:46:54.403Z,5.60
2023-01-17T13:49:24.046Z,8.57
2023-01-17T13:52:17.298Z,9.37
2023-01-17T13:54:45.893Z,7.47
2023-01-17T13:57:28.546Z,7.53
2023-01-17T13:59:57.531Z,8.20
2023-01-17T14:02:35.698Z,6.90
2023-01-17T14:05:26.010Z,11.67
2023-01-17T14:08:00.036Z,8.80
2023-01-17T14:10:35.040Z,6.20
2023-01-17T14:13:01.942Z,6.10
2023-01-17T14:15:29.933Z,6.47
2023-01-17T14:18:00.667Z,6.53
2023-01-17T14:20:27.547Z,10.80
2023-01-17T14:23:03.937Z,14.83
2023-01-17T14:25:40.468Z,6.97
2023-01-17T14:28:33.107Z,8.70
2023-01-17T14:31:00.892Z,6.20
2023-01-17T14:33:35.240Z,5.47
2023-01-17T14:36:04.382Z,5.53
2023-01-17T14:38:32.293Z,8.53
2023-01-17T14:41:01.737Z,8.07
2023-01-17T14:43:32.342Z,4.13
2023-01-17T14:46:01.091Z,5.67
2023-01-17T14:48:28.511Z,7.23
2023-01-17T14:50:57.351Z,7.27
2023-01-17T14:53:31.601Z,7.43
2023-01-17T14:56:02.375Z,8.13
2023-01-17T14:58:30.022Z,6.47
2023-01-17T15:00:59.106Z,7.93
2023-01-17T15:03:26.144Z,8.07
2023-01-17T15:05:54.005Z,7.77
2023-01-17T15:08:23.335Z,10.40
2023-01-17T15:10:58.765Z,9.00
2023-01-17T15:13:43.467Z,9.23
2023-01-17T15:16:22.274Z,6.23
2023-01-17T15:18:49.876Z,8.30
2023-01-17T15:21:19.590Z,6.93
2023-01-17T15:23:52.337Z,8.33
2023-01-17T15:26:22.670Z,6.13
2023-01-17T15:28:49.882Z,7.37
2023-01-17T15:31:19.980Z,7.03
2023-01-17T15:33:50.631Z,5.00
2023-01-17T15:36:17.056Z,4.43
2023-01-17T15:38:48.760Z,8.13
2023-01-17T15:41:16.247Z,7.63
2023-01-17T15:43:44.649Z,7.17
2023-01-17T15:46:21.593Z,6.80
2023-01-17T15:48:48.391Z,6.53
2023-01-17T15:51:37.080Z,8.40
2023-01-17T15:54:22.170Z,7.23
2023-01-17T15:56:48.693Z,9.37
2023-01-17T15:59:35.458Z,9.03
2023-01-17T16:02:01.998Z,11.77
2023-01-17T16:04:32.470Z,10.53
2023-01-17T16:07:19.592Z,5.63
2023-01-17T16:09:46.456Z,7.20
2023-01-17T16:12:12.944Z,5.67
2023-01-17T16:14:56.372Z,8.00
2023-01-17T16:17:26.045Z,9.40
2023-01-17T16:19:52.527Z,8.83
2023-01-17T16:22:19.020Z,4.67
2023-01-17T16:24:45.439Z,7.13
2023-01-17T16:27:11.899Z,5.37
2023-01-17T16:29:38.412Z,5.63
2023-01-17T16:32:08.663Z,7.50
2023-01-17T16:34:35.916Z,12.60
2023-01-17T16:37:03.973Z,5.83
2023-01-17T16:39:30.841Z,10.43
2023-01-17T16:42:03.861Z,6.47
2023-01-17T16:44:30.788Z,10.07
2023-01-17T16:47:01.291Z,9.93
2023-01-17T16:49:27.983Z,7.20
2023-01-17T16:51:54.438Z,6.73
2023-01-17T16:54:20.874Z,12.60
2023-01-17T16:56:47.335Z,17.13
2023-01-17T16:59:13.808Z,11.63
2023-01-17T17:01:40.483Z,18.70
2023-01-17T17:04:06.994Z,13.33
2023-01-17T17:06:34.258Z,12.37
2023-01-17T17:09:00.713Z,10.27
2023-01-17T17:11:27.323Z,13.43
2023-01-17T17:13:53.953Z,12.13
2023-01-17T17:16:22.264Z,8.90
2023-01-17T17:18:59.223Z,16.30
2023-01-17T17:21:26.051Z,14.20
2023-01-17T17:23:56.608Z,10.73
2023-01-17T17:26:24.173Z,14.83
2023-01-17T17:28:51.073Z,12.90
2023-01-17T17:31:17.631Z,17.20
2023-01-17T17:33:44.154Z,11.47
2023-01-17T17:36:10.646Z,16.20
2023-01-17T17:38:38.122Z,18.20
2023-01-17T17:41:05.410Z,20.77
2023-01-17T17:43:35.085Z,15.17
2023-01-17T17:46:01.626Z,18.73
2023-01-17T17:48:28.091Z,21.00
2023-01-17T17:50:59.768Z,15.33
2023-01-17T17:53:26.538Z,16.57
2023-01-17T17:55:53.663Z,16.83
2023-01-17T17:58:20.675Z,20.03
2023-01-17T18:00:49.214Z,14.83
2023-01-17T18:03:15.707Z,14.83
2023-01-17T18:05:42.592Z,15.00
2023-01-17T18:08:10.861Z,17.17
2023-01-17T18:10:37.990Z,20.67
2023-01-17T18:13:04.560Z,16.07
2023-01-17T18:15:31.295Z,16.07
2023-01-17T18:17:58.343Z,13.50
2023-01-17T18:20:24.800Z,18.40
2023-01-17T18:22:51.228Z,16.47
2023-01-17T18:25:17.710Z,18.37
2023-01-17T18:27:44.979Z,16.30
2023-01-17T18:30:12.491Z,21.43
2023-01-17T18:32:39.047Z,17.83
2023-01-17T18:35:05.732Z,17.23
2023-01-17T18:37:33.121Z,18.13
2023-01-17T18:39:59.571Z,19.27
2023-01-17T18:42:27.443Z,22.60
2023-01-17T18:44:53.854Z,24.23
2023-01-17T18:47:20.470Z,19.50
2023-01-17T18:49:46.856Z,23.77
2023-01-17T18:52:14.575Z,23.30
2023-01-17T18:54:41.072Z,21.40
2023-01-17T18:57:07.498Z,20.13
2023-01-17T18:59:34.023Z,23.47
2023-01-17T19:02:00.715Z,23.57
2023-01-17T19:04:28.575Z,21.47
2023-01-17T19:06:55.595Z,23.07
2023-01-17T19:09:22.286Z,23.13
2023-01-17T19:11:48.722Z,24.30
2023-01-17T19:14:15.738Z,22.63
2023-01-17T19:16:42.731Z,22.20
2023-01-17T19:19:10.972Z,20.03
2023-01-17T19:21:37.491Z,20.20
2023-01-17T19:24:04.144Z,25.70
2023-01-17T19:26:30.646Z,21.63
2023-01-17T19:28:58.623Z,24.73
2023-01-17T19:31:26.767Z,25.17
2023-01-17T19:33:56.750Z,26.33
2023-01-17T19:36:24.371Z,22.67
2023-01-17T19:39:03.515Z,21.60
2023-01-17T19:41:31.670Z,21.53
2023-01-17T19:43:59.325Z,19.47
2023-01-17T19:46:27.299Z,25.30
2023-01-17T19:48:54.971Z,20.83
2023-01-17T19:51:21.983Z,23.17
2023-01-17T19:53:48.500Z,23.47
2023-01-17T19:56:19.602Z,19.63
2023-01-17T19:58:46.766Z,20.63
2023-01-17T20:01:14.731Z,19.57
2023-01-17T20:03:43.701Z,20.73
2023-01-17T20:06:11.623Z,21.87
2023-01-17T20:08:38.237Z,24.43
2023-01-17T20:11:05.718Z,25.67
2023-01-17T20:13:32.417Z,22.50
2023-01-17T20:16:05.439Z,19.10
2023-01-17T20:18:32.496Z,20.10
2023-01-17T20:21:03.049Z,21.53
2023-01-17T20:23:29.554Z,23.73
2023-01-17T20:25:59.062Z,19.43
2023-01-17T20:28:26.711Z,18.37
2023-01-17T20:30:53.881Z,22.33
2023-01-17T20:33:20.445Z,19.77
2023-01-17T20:35:46.877Z,20.70
2023-01-17T20:38:13.313Z,20.93
2023-01-17T20:40:39.693Z,15.93
2023-01-17T20:43:06.234Z,15.60
2023-01-17T20:45:32.945Z,17.47
2023-01-17T20:47:59.657Z,17.17
2023-01-17T20:50:26.301Z,17.70
2023-01-17T20:52:52.738Z,16.87
2023-01-17T20:55:19.326Z,19.00
2023-01-17T20:57:45.746Z,18.90
2023-01-17T21:00:12.473Z,21.00
2023-01-17T21:02:38.917Z,15.43
2023-01-17T21:05:05.699Z,18.87
2023-01-17T21:07:32.116Z,18.97
2023-01-17T21:09:58.586Z,19.67
2023-01-17T21:12:25.028Z,17.80
2023-01-17T21:14:51.551Z,15.67
2023-01-17T21:17:19.165Z,17.17
2023-01-17T21:19:45.573Z,18.77
2023-01-17T21:22:14.749Z,17.53
2023-01-17T21:24:41.139Z,22.90
2023-01-17T21:27:07.629Z,21.13
2023-01-17T21:29:34.037Z,21.20
2023-01-17T21:32:00.527Z,17.90
2023-01-17T21:34:27.635Z,22.07
2023-01-17T21:36:54.031Z,21.57
2023-01-17T21:39:20.489Z,18.87
2023-01-17T21:41:47.938Z,18.50
2023-01-17T21:44:21.962Z,18.90
2023-01-17T21:46:48.848Z,17.13
2023-01-17T21:49:15.374Z,16.23
2023-01-17T21:51:54.912Z,17.63
2023-01-17T21:54:45.570Z,16.17
2023-01-17T21:57:45.083Z,21.80
2023-01-17T22:00:16.064Z,19.50
2023-01-17T22:02:43.265Z,15.10
2023-01-17T22:05:10.000Z,21.03
2023-01-17T22:07:37.239Z,17.20
2023-01-17T22:10:03.759Z,20.03
2023-01-17T22:12:30.226Z,15.43
2023-01-17T22:14:56.718Z,19.37
2023-01-17T22:17:23.174Z,18.77
2023-01-17T22:19:49.599Z,18.70
2023-01-17T22:22:16.017Z,20.13
2023-01-17T22:24:42.461Z,21.30
2023-01-17T22:27:09.894Z,23.57
2023-01-17T22:29:39.379Z,21.83
2023-01-17T22:32:05.837Z,20.07
2023-01-17T22:34:32.223Z,22.67
2023-01-17T22:36:58.703Z,26.40
2023-01-17T22:39:25.141Z,23.93
2023-01-17T22:41:51.616Z,20.73
2023-01-17T22:44:18.244Z,19.30
2023-01-17T22:46:45.143Z,18.50
2023-01-17T22:49:13.369Z,18.23
2023-01-17T22:51:39.884Z,20.30
2023-01-17T22:54:06.381Z,22.47
2023-01-17T22:56:33.433Z,21.03
2023-01-17T22:59:00.796Z,18.67
2023-01-17T23:01:31.268Z,26.57
2023-01-17T23:03:58.674Z,18.53
2023-01-17T23:06:30.404Z,19.50
2023-01-17T23:08:57.900Z,21.60
2023-01-17T23:11:39.677Z,19.33
2023-01-17T23:14:24.520Z,18.53
2023-01-17T23:17:13.472Z,18.47
2023-01-17T23:19:41.903Z,20.40
2023-01-17T23:22:15.730Z,18.10
2023-01-17T23:24:49.473Z,16.93
2023-01-17T23:27:36.514Z,17.77
2023-01-17T23:30:04.566Z,22.93
2023-01-17T23:32:31.461Z,22.60
2023-01-17T23:34:57.908Z,17.87
2023-01-17T23:37:48.445Z,17.67
2023-01-17T23:40:14.965Z,18.10
2023-01-17T23:43:00.138Z,19.37
2023-01-17T23:45:26.720Z,20.13
2023-01-17T23:47:53.245Z,25.30
2023-01-17T23:50:19.810Z,17.00
2023-01-17T23:52:46.431Z,17.00
2023-01-17T23:55:13.652Z,17.57
2023-01-17T23:57:40.152Z,18.03
